createdAt,value
2019-04-11T00:00:26.376Z,21.19
2019-04-11T00:01:35.852Z,21.18
2019-04-11T00:02:26.885Z,21.26
2019-04-11T00:03:27.150Z,21.26
2019-04-11T00:04:26.339Z,21.24
2019-04-11T00:05:26.558Z,21.22
2019-04-11T00:06:26.334Z,21.28
2019-04-11T00:07:26.269Z,21.18
2019-04-11T00:08:26.287Z,21.21
2019-04-11T00:09:27.013Z,21.21
2019-04-11T00:10:26.273Z,21.19
2019-04-11T00:11:26.261Z,21.16
2019-04-11T00:12:26.289Z,21.21
2019-04-11T00:13:28.648Z,21.19
2019-04-11T00:14:27.521Z,21.16
2019-04-11T00:15:26.622Z,21.26
2019-04-11T00:16:26.169Z,21.16
2019-04-11T00:17:26.168Z,21.12
2019-04-11T00:18:27.041Z,21.15
2019-04-11T00:19:27.290Z,21.27
2019-04-11T00:20:26.887Z,21.12
2019-04-11T00:21:26.127Z,21.13
2019-04-11T00:22:26.141Z,21.11
2019-04-11T00:23:26.113Z,21.27
2019-04-11T00:24:27.162Z,21.15
2019-04-11T00:25:26.069Z,21.09
2019-04-11T00:26:26.450Z,21.22
2019-04-11T00:27:26.735Z,21.00
2019-04-11T00:28:26.074Z,21.12
2019-04-11T00:29:26.161Z,21.09
2019-04-11T00:30:26.279Z,21.15
2019-04-11T00:31:26.005Z,21.09
2019-04-11T00:32:27.478Z,21.05
2019-04-11T00:33:26.504Z,21.21
2019-04-11T00:34:26.874Z,21.08
2019-04-11T00:35:26.008Z,21.08
2019-04-11T00:36:25.995Z,21.05
2019-04-11T00:37:25.965Z,21.13
2019-04-11T00:38:25.939Z,21.18
2019-04-11T00:39:25.925Z,21.06
2019-04-11T00:40:26.995Z,21.16
2019-04-11T00:41:26.029Z,21.08
2019-04-11T00:42:26.262Z,21.08
2019-04-11T00:43:32.266Z,21.13
2019-04-11T00:44:25.867Z,21.11
2019-04-11T00:45:26.211Z,21.01
2019-04-11T00:46:26.597Z,21.11
2019-04-11T00:47:25.844Z,21.16
2019-04-11T00:48:25.969Z,21.06
2019-04-11T00:49:26.229Z,21.11
2019-04-11T00:50:25.829Z,21.05
2019-04-11T00:51:25.845Z,21.05
2019-04-11T00:52:25.813Z,21.13
2019-04-11T00:53:25.784Z,21.06
2019-04-11T00:54:26.835Z,21.11
2019-04-11T00:55:25.746Z,21.05
2019-04-11T00:56:26.236Z,21.09
2019-04-11T00:57:25.765Z,21.11
2019-04-11T00:58:25.777Z,21.09
2019-04-11T00:59:26.670Z,21.00
2019-04-11T01:00:25.692Z,21.11
2019-04-11T01:01:26.011Z,21.03
2019-04-11T01:02:25.684Z,21.13
2019-04-11T01:03:26.414Z,21.06
2019-04-11T01:04:25.657Z,21.05
2019-04-11T01:05:25.717Z,21.12
2019-04-11T01:06:25.866Z,21.13
2019-04-11T01:07:25.632Z,21.18
2019-04-11T01:08:25.685Z,21.19
2019-04-11T01:09:26.407Z,21.11
2019-04-11T01:10:26.533Z,21.24
2019-04-11T01:11:25.752Z,21.24
2019-04-11T01:12:26.744Z,21.15
2019-04-11T01:13:25.927Z,21.16
2019-04-11T01:14:25.806Z,21.19
2019-04-11T01:15:25.561Z,21.21
2019-04-11T01:16:26.310Z,21.22
2019-04-11T01:17:25.556Z,21.22
2019-04-11T01:18:25.754Z,21.21
2019-04-11T01:19:26.749Z,21.28
2019-04-11T01:20:25.477Z,21.36
2019-04-11T01:21:26.451Z,21.26
2019-04-11T01:22:26.520Z,21.28
2019-04-11T01:23:25.457Z,21.31
2019-04-11T01:24:26.009Z,21.36
2019-04-11T01:25:25.460Z,21.37
2019-04-11T01:26:26.604Z,21.42
2019-04-11T01:27:25.721Z,21.48
2019-04-11T01:28:25.445Z,21.37
2019-04-11T01:29:25.381Z,21.40
2019-04-11T01:30:25.394Z,21.45
2019-04-11T01:31:25.401Z,21.38
2019-04-11T01:32:26.391Z,21.40
2019-04-11T01:33:25.360Z,21.38
2019-04-11T01:34:26.650Z,21.46
2019-04-11T01:35:25.538Z,21.49
2019-04-11T01:36:25.338Z,21.52
2019-04-11T01:37:26.004Z,21.45
2019-04-11T01:38:25.598Z,21.49
2019-04-11T01:39:26.540Z,21.53
2019-04-11T01:40:25.541Z,21.48
2019-04-11T01:41:25.282Z,21.49
2019-04-11T01:42:25.270Z,21.53
2019-04-11T01:43:26.131Z,21.55
2019-04-11T01:44:25.240Z,21.55
2019-04-11T01:45:25.399Z,21.51
2019-04-11T01:46:26.360Z,21.53
2019-04-11T01:47:25.206Z,21.58
2019-04-11T01:48:25.754Z,21.55
2019-04-11T01:49:25.192Z,21.58
2019-04-11T01:50:25.234Z,21.59
2019-04-11T01:51:25.437Z,21.58
2019-04-11T01:52:25.166Z,21.52
2019-04-11T01:53:25.132Z,21.53
2019-04-11T01:54:25.877Z,21.49
2019-04-11T01:55:26.178Z,21.52
2019-04-11T01:56:25.274Z,21.48
2019-04-11T01:57:25.575Z,21.55
2019-04-11T01:58:25.064Z,21.61
2019-04-11T01:59:25.055Z,21.59
2019-04-11T02:00:26.092Z,21.55
2019-04-11T02:01:25.130Z,21.63
2019-04-11T02:02:25.052Z,21.68
2019-04-11T02:03:25.459Z,21.67
2019-04-11T02:04:25.958Z,21.66
2019-04-11T02:05:25.206Z,21.68
2019-04-11T02:06:25.711Z,21.66
2019-04-11T02:07:25.009Z,21.66
2019-04-11T02:08:25.059Z,21.61
2019-04-11T02:09:26.162Z,21.64
2019-04-11T02:10:24.953Z,21.67
2019-04-11T02:11:25.606Z,21.63
2019-04-11T02:12:24.950Z,21.73
2019-04-11T02:13:25.908Z,21.61
2019-04-11T02:14:25.829Z,21.73
2019-04-11T02:15:25.126Z,21.67
2019-04-11T02:16:25.202Z,21.73
2019-04-11T02:17:24.878Z,21.73
2019-04-11T02:18:25.562Z,21.63
2019-04-11T02:19:25.906Z,21.74
2019-04-11T02:20:25.002Z,21.68
2019-04-11T02:21:25.342Z,21.61
2019-04-11T02:22:24.819Z,21.61
2019-04-11T02:23:24.801Z,21.70
2019-04-11T02:24:25.793Z,21.59
2019-04-11T02:25:24.894Z,21.68
2019-04-11T02:26:25.158Z,21.71
2019-04-11T02:27:25.937Z,21.74
2019-04-11T02:28:24.771Z,21.63
2019-04-11T02:29:25.589Z,21.66
2019-04-11T02:30:25.516Z,21.64
2019-04-11T02:31:26.186Z,21.66
2019-04-11T02:32:25.487Z,21.68
2019-04-11T02:33:26.417Z,21.64
2019-04-11T02:34:25.339Z,21.70
2019-04-11T02:35:24.690Z,21.58
2019-04-11T02:36:25.029Z,21.71
2019-04-11T02:37:26.288Z,21.58
2019-04-11T02:38:24.717Z,21.63
2019-04-11T02:39:27.568Z,21.63
2019-04-11T02:40:24.811Z,21.61
2019-04-11T02:41:25.408Z,21.61
2019-04-11T02:42:25.536Z,21.56
2019-04-11T02:43:25.611Z,21.61
2019-04-11T02:44:39.870Z,21.59
2019-04-11T02:45:36.965Z,21.61
2019-04-11T02:46:36.973Z,21.67
2019-04-11T02:47:29.453Z,21.59
2019-04-11T02:48:24.644Z,21.58
2019-04-11T02:49:25.739Z,21.61
2019-04-11T02:50:26.549Z,21.67
2019-04-11T02:51:24.881Z,21.66
2019-04-11T02:52:25.406Z,21.64
2019-04-11T02:53:26.202Z,21.70
2019-04-11T02:54:26.400Z,21.71
2019-04-11T02:55:25.161Z,21.63
2019-04-11T02:56:25.797Z,21.61
2019-04-11T02:57:25.782Z,21.64
2019-04-11T02:58:25.419Z,21.61
2019-04-11T02:59:25.320Z,21.58
2019-04-11T03:00:26.518Z,21.67
2019-04-11T03:01:26.093Z,21.67
2019-04-11T03:02:26.611Z,21.74
2019-04-11T03:03:25.346Z,21.61
2019-04-11T03:04:24.548Z,21.61
2019-04-11T03:05:24.725Z,21.67
2019-04-11T03:06:25.841Z,21.59
2019-04-11T03:07:24.745Z,21.61
2019-04-11T03:08:26.802Z,21.55
2019-04-11T03:09:24.306Z,21.51
2019-04-11T03:10:24.880Z,21.58
2019-04-11T03:11:26.044Z,21.51
2019-04-11T03:12:24.835Z,21.61
2019-04-11T03:13:25.301Z,21.66
2019-04-11T03:14:25.153Z,21.68
2019-04-11T03:15:37.646Z,21.58
2019-04-11T03:16:32.852Z,21.59
2019-04-11T03:17:30.628Z,21.52
2019-04-11T03:18:40.960Z,21.61
2019-04-11T03:19:38.935Z,21.48
2019-04-11T03:20:32.468Z,21.56
2019-04-11T03:21:26.907Z,21.51
2019-04-11T03:22:24.800Z,21.55
2019-04-11T03:23:25.214Z,21.58
2019-04-11T03:24:25.098Z,21.53
2019-04-11T03:25:24.661Z,21.53
2019-04-11T03:26:25.037Z,21.56
2019-04-11T03:27:26.501Z,21.52
2019-04-11T03:28:28.275Z,21.52
2019-04-11T03:29:24.852Z,21.61
2019-04-11T03:30:38.499Z,21.64
2019-04-11T03:32:05.361Z,21.64
2019-04-11T03:33:18.113Z,21.59
2019-04-11T03:34:18.161Z,21.61
2019-04-11T03:35:16.531Z,21.61
2019-04-11T03:37:49.424Z,21.51
2019-04-11T03:38:48.244Z,21.52
2019-04-11T03:39:43.591Z,21.51
2019-04-11T03:40:42.864Z,21.64
2019-04-11T03:41:42.708Z,21.64
2019-04-11T03:42:39.751Z,21.64
2019-04-11T03:43:34.420Z,21.63
2019-04-11T03:44:30.924Z,21.52
2019-04-11T03:45:44.179Z,21.61
2019-04-11T03:46:37.350Z,21.64
2019-04-11T03:47:38.910Z,21.58
2019-04-11T03:48:33.214Z,21.66
2019-04-11T03:49:34.265Z,21.53
2019-04-11T03:50:28.027Z,21.53
2019-04-11T03:51:25.600Z,21.53
2019-04-11T03:52:25.303Z,21.63
2019-04-11T03:53:29.123Z,21.56
2019-04-11T03:54:25.243Z,21.56
2019-04-11T03:55:25.706Z,21.59
2019-04-11T03:56:24.415Z,21.58
2019-04-11T03:57:25.432Z,21.51
2019-04-11T03:58:25.347Z,21.55
2019-04-11T03:59:23.920Z,21.56
2019-04-11T04:00:28.302Z,21.53
2019-04-11T04:01:25.164Z,21.53
2019-04-11T04:02:24.669Z,21.53
2019-04-11T04:03:24.605Z,21.49
2019-04-11T04:04:24.381Z,21.53
2019-04-11T04:05:23.998Z,21.56
2019-04-11T04:06:25.403Z,21.55
2019-04-11T04:07:24.246Z,21.46
2019-04-11T04:08:24.737Z,21.49
2019-04-11T04:09:24.597Z,21.51
2019-04-11T04:10:23.752Z,21.48
2019-04-11T04:11:26.736Z,21.43
2019-04-11T04:12:23.687Z,21.40
2019-04-11T04:13:26.351Z,21.37
2019-04-11T04:14:24.327Z,21.38
2019-04-11T04:15:35.835Z,21.43
2019-04-11T04:16:29.384Z,21.40
2019-04-11T04:17:25.326Z,21.43
2019-04-11T04:18:24.308Z,21.43
2019-04-11T04:19:25.112Z,21.42
2019-04-11T04:20:24.676Z,21.42
2019-04-11T04:21:24.729Z,21.38
2019-04-11T04:22:24.787Z,21.40
2019-04-11T04:23:24.783Z,21.46
2019-04-11T04:24:25.018Z,21.40
2019-04-11T04:25:24.289Z,21.45
2019-04-11T04:26:25.010Z,21.43
2019-04-11T04:27:27.478Z,21.43
2019-04-11T04:28:23.893Z,21.42
2019-04-11T04:29:25.094Z,21.40
2019-04-11T04:30:24.688Z,21.51
2019-04-11T04:31:24.422Z,21.48
2019-04-11T04:32:25.069Z,21.42
2019-04-11T04:33:23.784Z,21.45
2019-04-11T04:34:23.874Z,21.46
2019-04-11T04:35:25.271Z,21.49
2019-04-11T04:36:24.715Z,21.49
2019-04-11T04:37:25.970Z,21.49
2019-04-11T04:38:23.973Z,21.46
2019-04-11T04:39:24.779Z,21.37
2019-04-11T04:40:41.026Z,21.51
2019-04-11T04:41:36.673Z,21.52
2019-04-11T04:42:30.805Z,21.49
2019-04-11T04:43:24.973Z,21.49
2019-04-11T04:44:24.819Z,21.46
2019-04-11T04:45:23.829Z,21.40
2019-04-11T04:46:39.595Z,21.52
2019-04-11T04:47:32.581Z,21.42
2019-04-11T04:48:26.767Z,21.34
2019-04-11T04:49:23.804Z,21.37
2019-04-11T04:50:24.486Z,21.40
2019-04-11T04:51:24.326Z,21.38
2019-04-11T04:52:25.059Z,21.40
2019-04-11T04:53:25.681Z,21.38
2019-04-11T04:54:24.080Z,21.43
2019-04-11T04:55:24.046Z,21.38
2019-04-11T04:56:28.416Z,21.42
2019-04-11T04:57:24.468Z,21.34
2019-04-11T04:58:24.883Z,21.36
2019-04-11T04:59:23.766Z,21.38
2019-04-11T05:00:23.734Z,21.42
2019-04-11T05:01:23.844Z,21.31
2019-04-11T05:02:24.108Z,21.37
2019-04-11T05:03:24.539Z,21.33
2019-04-11T05:04:23.556Z,21.36
2019-04-11T05:05:24.334Z,21.38
2019-04-11T05:06:24.175Z,21.37
2019-04-11T05:07:23.622Z,21.28
2019-04-11T05:08:23.068Z,21.31
2019-04-11T05:09:23.553Z,21.27
2019-04-11T05:10:24.151Z,21.33
2019-04-11T05:11:23.298Z,21.24
2019-04-11T05:12:22.977Z,21.30
2019-04-11T05:13:23.956Z,21.22
2019-04-11T05:14:23.421Z,21.26
2019-04-11T05:15:24.344Z,21.27
2019-04-11T05:16:22.944Z,21.30
2019-04-11T05:17:23.297Z,21.24
2019-04-11T05:18:23.692Z,21.30
2019-04-11T05:19:23.742Z,21.22
2019-04-11T05:20:23.836Z,21.16
2019-04-11T05:21:23.310Z,21.16
2019-04-11T05:22:22.884Z,21.05
2019-04-11T05:23:23.502Z,21.09
2019-04-11T05:24:22.992Z,20.98
2019-04-11T05:25:22.865Z,20.98
2019-04-11T05:26:23.598Z,20.97
2019-04-11T05:27:22.983Z,20.97
2019-04-11T05:28:23.468Z,20.94
2019-04-11T05:29:22.824Z,20.97
2019-04-11T05:30:23.156Z,20.98
2019-04-11T05:31:22.783Z,20.93
2019-04-11T05:32:23.853Z,20.96
2019-04-11T05:33:23.214Z,20.97
2019-04-11T05:34:23.802Z,20.98
2019-04-11T05:35:22.865Z,20.98
2019-04-11T05:36:22.803Z,21.03
2019-04-11T05:37:22.857Z,20.97
2019-04-11T05:38:23.089Z,20.96
2019-04-11T05:39:23.405Z,21.01
2019-04-11T05:40:23.866Z,21.08
2019-04-11T05:41:23.573Z,21.11
2019-04-11T05:42:25.552Z,21.01
2019-04-11T05:43:26.810Z,21.06
2019-04-11T05:44:22.921Z,21.06
2019-04-11T05:45:24.434Z,21.06
2019-04-11T05:46:31.337Z,21.05
2019-04-11T05:47:23.400Z,21.06
2019-04-11T05:48:25.587Z,21.01
2019-04-11T05:49:23.161Z,21.08
2019-04-11T05:50:22.573Z,21.05
2019-04-11T05:51:23.856Z,21.12
2019-04-11T05:52:22.546Z,21.09
2019-04-11T05:53:22.839Z,21.09
2019-04-11T05:54:22.535Z,21.12
2019-04-11T05:55:23.619Z,21.01
2019-04-11T05:56:23.583Z,21.12
2019-04-11T05:57:24.431Z,21.16
2019-04-11T05:58:22.483Z,21.13
2019-04-11T05:59:23.921Z,21.19
2019-04-11T06:00:23.467Z,21.06
2019-04-11T06:01:22.492Z,21.22
2019-04-11T06:02:22.444Z,21.22
2019-04-11T06:03:23.684Z,21.21
2019-04-11T06:04:25.592Z,21.21
2019-04-11T06:05:24.584Z,21.11
2019-04-11T06:06:22.497Z,21.22
2019-04-11T06:07:23.482Z,21.16
2019-04-11T06:08:26.961Z,21.26
2019-04-11T06:09:22.973Z,21.16
2019-04-11T06:10:22.361Z,21.12
2019-04-11T06:11:24.124Z,21.12
2019-04-11T06:12:22.554Z,21.16
2019-04-11T06:13:22.697Z,21.22
2019-04-11T06:14:22.898Z,21.16
2019-04-11T06:15:23.020Z,21.15
2019-04-11T06:16:24.000Z,21.12
2019-04-11T06:17:22.272Z,21.22
2019-04-11T06:18:27.096Z,21.16
2019-04-11T06:19:22.905Z,21.24
2019-04-11T06:20:24.833Z,21.13
2019-04-11T06:21:22.267Z,21.16
2019-04-11T06:22:23.530Z,21.24
2019-04-11T06:23:23.366Z,21.22
2019-04-11T06:24:22.222Z,21.16
2019-04-11T06:25:23.508Z,21.18
2019-04-11T06:26:23.020Z,21.15
2019-04-11T06:27:22.227Z,21.19
2019-04-11T06:28:22.576Z,21.16
2019-04-11T06:29:26.231Z,21.13
2019-04-11T06:30:22.133Z,21.15
2019-04-11T06:31:23.298Z,21.18
2019-04-11T06:32:22.141Z,21.22
2019-04-11T06:33:22.687Z,21.19
2019-04-11T06:34:24.134Z,21.16
2019-04-11T06:35:22.113Z,21.21
2019-04-11T06:36:23.265Z,21.16
2019-04-11T06:37:22.099Z,21.15
2019-04-11T06:38:22.686Z,21.22
2019-04-11T06:39:23.053Z,21.22
2019-04-11T06:40:22.901Z,21.15
2019-04-11T06:41:22.183Z,21.21
2019-04-11T06:42:24.449Z,21.18
2019-04-11T06:43:21.993Z,21.18
2019-04-11T06:44:22.020Z,21.21
2019-04-11T06:45:22.352Z,21.19
2019-04-11T06:46:21.977Z,21.22
2019-04-11T06:47:22.891Z,21.18
2019-04-11T06:48:23.747Z,21.22
2019-04-11T06:49:22.471Z,21.24
2019-04-11T06:50:22.957Z,21.27
2019-04-11T06:51:22.073Z,21.26
2019-04-11T06:52:21.888Z,21.24
2019-04-11T06:53:21.918Z,21.19
2019-04-11T06:54:23.207Z,21.19
2019-04-11T06:55:22.435Z,21.26
2019-04-11T06:56:23.134Z,21.30
2019-04-11T06:57:21.844Z,21.19
2019-04-11T06:58:21.820Z,21.16
2019-04-11T06:59:21.827Z,21.24
2019-04-11T07:00:23.085Z,21.26
2019-04-11T07:01:22.426Z,21.27
2019-04-11T07:02:24.195Z,21.30
2019-04-11T07:03:25.530Z,21.22
2019-04-11T07:04:21.924Z,21.27
2019-04-11T07:05:22.584Z,21.30
2019-04-11T07:06:21.851Z,21.22
2019-04-11T07:07:21.804Z,21.30
2019-04-11T07:08:22.291Z,21.28
2019-04-11T07:09:22.282Z,21.28
2019-04-11T07:10:22.378Z,21.26
2019-04-11T07:11:21.713Z,21.31
2019-04-11T07:12:22.170Z,21.33
2019-04-11T07:13:22.722Z,21.27
2019-04-11T07:14:22.450Z,21.33
2019-04-11T07:15:22.970Z,21.22
2019-04-11T07:16:21.967Z,21.22
2019-04-11T07:17:21.629Z,21.24
2019-04-11T07:18:22.641Z,21.22
2019-04-11T07:19:21.913Z,21.24
2019-04-11T07:20:21.791Z,21.28
2019-04-11T07:21:21.602Z,21.26
2019-04-11T07:22:21.566Z,21.31
2019-04-11T07:23:22.241Z,21.27
2019-04-11T07:24:22.386Z,21.28
2019-04-11T07:25:22.292Z,21.31
2019-04-11T07:26:21.541Z,21.22
2019-04-11T07:27:21.524Z,21.30
2019-04-11T07:28:21.537Z,21.27
2019-04-11T07:29:21.635Z,21.28
2019-04-11T07:30:24.137Z,21.27
2019-04-11T07:31:21.804Z,21.36
2019-04-11T07:32:22.297Z,21.28
2019-04-11T07:33:21.473Z,21.27
2019-04-11T07:34:21.446Z,21.24
2019-04-11T07:35:21.502Z,21.28
2019-04-11T07:36:22.743Z,21.30
2019-04-11T07:37:21.530Z,21.26
2019-04-11T07:38:22.553Z,21.27
2019-04-11T07:39:22.517Z,21.30
2019-04-11T07:40:21.970Z,21.42
2019-04-11T07:41:21.676Z,21.33
2019-04-11T07:42:21.387Z,21.31
2019-04-11T07:43:22.453Z,21.37
2019-04-11T07:44:21.802Z,21.30
2019-04-11T07:45:21.311Z,21.31
2019-04-11T07:46:22.151Z,21.34
2019-04-11T07:47:24.557Z,21.36
2019-04-11T07:48:21.468Z,21.28
2019-04-11T07:49:21.291Z,21.34
2019-04-11T07:50:21.388Z,21.43
2019-04-11T07:51:21.255Z,21.40
2019-04-11T07:52:21.254Z,21.38
2019-04-11T07:53:21.717Z,21.40
2019-04-11T07:54:22.348Z,21.40
2019-04-11T07:55:21.206Z,21.38
2019-04-11T07:56:21.216Z,21.43
2019-04-11T07:57:21.180Z,21.37
2019-04-11T07:58:21.699Z,21.42
2019-04-11T07:59:21.699Z,21.43
2019-04-11T08:00:35.925Z,21.38
2019-04-11T08:01:21.251Z,21.38
2019-04-11T08:02:23.944Z,21.37
2019-04-11T08:03:21.418Z,21.43
2019-04-11T08:04:21.654Z,21.42
2019-04-11T08:05:21.545Z,21.46
2019-04-11T08:06:22.236Z,21.40
2019-04-11T08:07:22.143Z,21.43
2019-04-11T08:08:21.485Z,21.40
2019-04-11T08:09:22.152Z,21.46
2019-04-11T08:10:21.033Z,21.40
2019-04-11T08:11:21.031Z,21.28
2019-04-11T08:12:21.351Z,21.38
2019-04-11T08:13:21.011Z,21.43
2019-04-11T08:14:21.159Z,21.37
2019-04-11T08:15:21.664Z,21.42
2019-04-11T08:16:22.333Z,21.45
2019-04-11T08:17:30.824Z,21.40
2019-04-11T08:18:20.961Z,21.48
2019-04-11T08:19:21.111Z,21.31
2019-04-11T08:20:21.389Z,21.46
2019-04-11T08:21:21.867Z,21.40
2019-04-11T08:22:21.074Z,21.40
2019-04-11T08:23:21.379Z,21.48
2019-04-11T08:24:20.902Z,21.37
2019-04-11T08:25:23.048Z,21.46
2019-04-11T08:26:22.026Z,21.45
2019-04-11T08:27:20.869Z,21.45
2019-04-11T08:28:20.852Z,21.46
2019-04-11T08:29:21.895Z,21.42
2019-04-11T08:30:20.831Z,21.38
2019-04-11T08:31:21.566Z,21.46
2019-04-11T08:32:21.977Z,21.42
2019-04-11T08:33:20.797Z,21.43
2019-04-11T08:34:21.899Z,21.46
2019-04-11T08:35:20.844Z,21.42
2019-04-11T08:36:21.928Z,21.38
2019-04-11T08:37:21.182Z,21.43
2019-04-11T08:38:20.768Z,21.40
2019-04-11T08:39:20.753Z,21.45
2019-04-11T08:40:21.777Z,21.46
2019-04-11T08:41:20.705Z,21.42
2019-04-11T08:42:21.319Z,21.43
2019-04-11T08:43:21.347Z,21.40
2019-04-11T08:44:20.672Z,21.49
2019-04-11T08:45:21.554Z,21.40
2019-04-11T08:46:20.735Z,21.48
2019-04-11T08:47:20.652Z,21.46
2019-04-11T08:48:21.185Z,21.43
2019-04-11T08:49:21.561Z,21.45
2019-04-11T08:50:20.746Z,21.40
2019-04-11T08:51:20.611Z,21.42
2019-04-11T08:52:21.373Z,21.42
2019-04-11T08:53:20.729Z,21.48
2019-04-11T08:54:21.576Z,21.46
2019-04-11T08:55:21.564Z,21.46
2019-04-11T08:56:21.091Z,21.45
2019-04-11T08:57:20.534Z,21.42
2019-04-11T08:58:20.548Z,21.49
2019-04-11T08:59:21.532Z,21.40
2019-04-11T09:00:20.516Z,21.40
2019-04-11T09:01:20.580Z,21.46
2019-04-11T09:02:20.669Z,21.43
2019-04-11T09:03:20.463Z,21.40
2019-04-11T09:04:20.459Z,21.51
2019-04-11T09:05:20.814Z,21.45
2019-04-11T09:06:20.808Z,21.42
2019-04-11T09:07:21.174Z,21.46
2019-04-11T09:08:20.444Z,21.48
2019-04-11T09:09:20.914Z,21.46
2019-04-11T09:10:20.377Z,21.51
2019-04-11T09:11:20.555Z,21.48
2019-04-11T09:12:20.616Z,21.51
2019-04-11T09:13:20.356Z,21.48
2019-04-11T09:14:20.677Z,21.48
2019-04-11T09:15:21.107Z,21.51
2019-04-11T09:16:21.511Z,21.56
2019-04-11T09:17:21.423Z,21.53
2019-04-11T09:18:20.290Z,21.51
2019-04-11T09:19:21.003Z,21.53
2019-04-11T09:20:21.441Z,21.55
2019-04-11T09:21:20.346Z,21.46
2019-04-11T09:22:20.536Z,21.51
2019-04-11T09:23:20.237Z,21.51
2019-04-11T09:24:20.240Z,21.49
2019-04-11T09:25:21.197Z,21.42
2019-04-11T09:26:20.283Z,21.43
2019-04-11T09:27:20.476Z,21.40
2019-04-11T09:28:20.190Z,21.43
2019-04-11T09:29:22.026Z,21.40
2019-04-11T09:30:20.968Z,21.42
2019-04-11T09:31:21.224Z,21.28
2019-04-11T09:32:20.234Z,21.31
2019-04-11T09:33:20.774Z,21.28
2019-04-11T09:34:20.284Z,21.21
2019-04-11T09:35:20.107Z,21.19
2019-04-11T09:36:21.943Z,21.16
2019-04-11T09:37:20.427Z,21.27
2019-04-11T09:38:20.069Z,21.16
2019-04-11T09:39:21.214Z,21.22
2019-04-11T09:40:20.059Z,21.05
2019-04-11T09:41:20.569Z,21.08
2019-04-11T09:42:22.395Z,21.05
2019-04-11T09:43:20.032Z,21.03
2019-04-11T09:44:20.362Z,21.06
2019-04-11T09:45:19.999Z,21.15
2019-04-11T09:46:20.064Z,21.15
2019-04-11T09:47:20.015Z,21.16
2019-04-11T09:48:22.266Z,21.09
2019-04-11T09:49:20.508Z,21.16
2019-04-11T09:50:20.409Z,21.18
2019-04-11T09:51:21.253Z,21.15
2019-04-11T09:52:20.592Z,21.15
2019-04-11T09:53:20.698Z,21.16
2019-04-11T09:54:19.903Z,21.12
2019-04-11T09:55:21.225Z,21.22
2019-04-11T09:56:20.785Z,21.09
2019-04-11T09:57:20.610Z,21.05
2019-04-11T09:58:19.865Z,21.03
2019-04-11T09:59:20.819Z,20.97
2019-04-11T10:00:22.917Z,21.08
2019-04-11T10:01:21.336Z,21.03
2019-04-11T10:02:28.941Z,21.15
2019-04-11T10:03:19.919Z,21.00
2019-04-11T10:04:19.951Z,21.05
2019-04-11T10:05:30.010Z,21.12
2019-04-11T10:06:30.139Z,21.05
2019-04-11T10:07:21.713Z,21.01
2019-04-11T10:08:19.855Z,21.09
2019-04-11T10:09:21.912Z,21.00
2019-04-11T10:10:20.938Z,20.97
2019-04-11T10:11:28.837Z,21.06
2019-04-11T10:12:24.214Z,21.09
2019-04-11T10:13:22.836Z,21.16
2019-04-11T10:14:21.718Z,21.08
2019-04-11T10:15:21.006Z,21.15
2019-04-11T10:16:21.855Z,21.15
2019-04-11T10:17:22.612Z,21.03
2019-04-11T10:18:27.730Z,21.12
2019-04-11T10:19:21.973Z,21.24
2019-04-11T10:20:20.324Z,21.24
2019-04-11T10:21:19.727Z,21.16
2019-04-11T10:22:20.661Z,21.22
2019-04-11T10:23:20.869Z,21.27
2019-04-11T10:24:20.974Z,21.36
2019-04-11T10:25:19.648Z,21.31
2019-04-11T10:26:20.243Z,21.33
2019-04-11T10:27:20.513Z,21.34
2019-04-11T10:28:19.677Z,21.26
2019-04-11T10:29:19.685Z,21.37
2019-04-11T10:30:19.576Z,21.42
2019-04-11T10:31:20.341Z,21.34
2019-04-11T10:32:19.531Z,21.37
2019-04-11T10:33:20.507Z,21.40
2019-04-11T10:34:19.670Z,21.36
2019-04-11T10:35:20.183Z,21.38
2019-04-11T10:36:19.466Z,21.42
2019-04-11T10:37:20.040Z,21.43
2019-04-11T10:38:20.394Z,21.48
2019-04-11T10:39:19.800Z,21.46
2019-04-11T10:40:21.206Z,21.40
2019-04-11T10:41:19.432Z,21.46
2019-04-11T10:42:20.216Z,21.52
2019-04-11T10:43:20.314Z,21.55
2019-04-11T10:44:19.365Z,21.53
2019-04-11T10:45:20.352Z,21.56
2019-04-11T10:46:20.214Z,21.56
2019-04-11T10:47:20.632Z,21.64
2019-04-11T10:48:21.165Z,21.59
2019-04-11T10:49:19.976Z,21.66
2019-04-11T10:50:19.650Z,21.61
2019-04-11T10:51:20.543Z,21.61
2019-04-11T10:52:20.325Z,21.61
2019-04-11T10:53:19.489Z,21.67
2019-04-11T10:54:19.803Z,21.61
2019-04-11T10:55:19.748Z,21.66
2019-04-11T10:56:19.302Z,21.59
2019-04-11T10:57:20.948Z,21.64
2019-04-11T10:58:20.489Z,21.59
2019-04-11T10:59:19.551Z,21.66
2019-04-11T11:00:19.246Z,21.68
2019-04-11T11:01:19.885Z,21.64
2019-04-11T11:02:19.178Z,21.66
2019-04-11T11:03:20.306Z,21.68
2019-04-11T11:04:19.957Z,21.67
2019-04-11T11:05:19.499Z,21.73
2019-04-11T11:06:19.750Z,21.59
2019-04-11T11:07:20.348Z,21.67
2019-04-11T11:08:19.477Z,21.61
2019-04-11T11:09:19.876Z,21.59
2019-04-11T11:10:19.547Z,21.58
2019-04-11T11:11:19.491Z,21.55
2019-04-11T11:12:19.127Z,21.53
2019-04-11T11:13:19.155Z,21.53
2019-04-11T11:14:19.066Z,21.48
2019-04-11T11:15:19.845Z,21.49
2019-04-11T11:16:20.175Z,21.49
2019-04-11T11:17:43.802Z,21.42
2019-04-11T11:18:53.849Z,21.51
2019-04-11T11:19:40.327Z,21.46
2019-04-11T11:20:26.822Z,21.48
2019-04-11T11:21:19.782Z,21.40
2019-04-11T11:22:18.965Z,21.42
2019-04-11T11:23:18.961Z,21.38
2019-04-11T11:24:19.733Z,21.46
2019-04-11T11:25:19.592Z,21.45
2019-04-11T11:26:22.537Z,21.45
2019-04-11T11:27:20.074Z,21.43
2019-04-11T11:28:18.892Z,21.49
2019-04-11T11:29:20.409Z,21.48
2019-04-11T11:30:18.889Z,21.48
2019-04-11T11:31:20.230Z,21.49
2019-04-11T11:32:19.004Z,21.46
2019-04-11T11:33:18.837Z,21.52
2019-04-11T11:34:21.241Z,21.49
2019-04-11T11:35:22.585Z,21.51
2019-04-11T11:36:19.361Z,21.56
2019-04-11T11:37:18.872Z,21.53
2019-04-11T11:38:19.885Z,21.48
2019-04-11T11:39:19.327Z,21.53
2019-04-11T11:40:18.979Z,21.52
2019-04-11T11:41:18.753Z,21.56
2019-04-11T11:42:19.846Z,21.55
2019-04-11T11:43:19.050Z,21.59
2019-04-11T11:44:19.497Z,21.63
2019-04-11T11:45:19.548Z,21.59
2019-04-11T11:46:19.302Z,21.58
2019-04-11T11:47:19.604Z,21.59
2019-04-11T11:48:21.836Z,21.61
2019-04-11T11:49:32.574Z,21.55
2019-04-11T11:50:21.608Z,21.61
2019-04-11T11:51:22.698Z,21.53
2019-04-11T11:52:19.318Z,21.66
2019-04-11T11:53:18.639Z,21.61
2019-04-11T11:54:19.803Z,21.55
2019-04-11T11:55:20.419Z,21.58
2019-04-11T11:56:18.589Z,21.59
2019-04-11T11:57:18.719Z,21.64
2019-04-11T11:58:19.877Z,21.58
2019-04-11T11:59:19.675Z,21.58
2019-04-11T12:00:18.712Z,21.68
2019-04-11T12:01:19.778Z,21.66
2019-04-11T12:02:21.098Z,21.66
2019-04-11T12:03:19.081Z,21.63
2019-04-11T12:04:19.066Z,21.58
2019-04-11T12:05:18.632Z,21.67
2019-04-11T12:06:22.328Z,21.66
2019-04-11T12:07:18.966Z,21.64
2019-04-11T12:08:18.483Z,21.64
2019-04-11T12:09:18.443Z,21.66
2019-04-11T12:10:19.479Z,21.66
2019-04-11T12:11:18.784Z,21.64
2019-04-11T12:12:18.438Z,21.64
2019-04-11T12:13:19.246Z,21.70
2019-04-11T12:14:18.400Z,21.66
2019-04-11T12:15:22.058Z,21.70
2019-04-11T12:16:21.361Z,21.70
2019-04-11T12:17:18.663Z,21.63
2019-04-11T12:18:19.885Z,21.58
2019-04-11T12:19:20.421Z,21.73
2019-04-11T12:20:18.629Z,21.73
2019-04-11T12:21:23.611Z,21.63
2019-04-11T12:22:18.306Z,21.67
2019-04-11T12:23:18.300Z,21.75
2019-04-11T12:24:19.522Z,21.74
2019-04-11T12:25:18.298Z,21.68
2019-04-11T12:26:18.513Z,21.71
2019-04-11T12:27:18.507Z,21.70
2019-04-11T12:28:19.497Z,21.74
2019-04-11T12:29:18.577Z,21.61
2019-04-11T12:30:23.402Z,21.79
2019-04-11T12:31:18.231Z,21.77
2019-04-11T12:32:18.203Z,21.77
2019-04-11T12:33:19.316Z,21.79
2019-04-11T12:34:18.669Z,21.79
2019-04-11T12:35:18.190Z,21.70
2019-04-11T12:36:18.739Z,21.70
2019-04-11T12:37:19.809Z,21.75
2019-04-11T12:38:20.312Z,21.75
2019-04-11T12:39:18.114Z,21.75
2019-04-11T12:40:18.158Z,21.79
2019-04-11T12:41:20.035Z,21.81
2019-04-11T12:42:18.087Z,21.81
2019-04-11T12:43:18.092Z,21.82
2019-04-11T12:44:18.071Z,21.77
2019-04-11T12:45:18.801Z,21.79
2019-04-11T12:46:19.330Z,21.89
2019-04-11T12:47:18.038Z,21.82
2019-04-11T12:48:18.037Z,21.89
2019-04-11T12:49:18.047Z,21.89
2019-04-11T12:50:18.017Z,21.93
2019-04-11T12:51:17.988Z,21.90
2019-04-11T12:52:18.586Z,21.93
2019-04-11T12:53:23.110Z,21.99
2019-04-11T12:55:55.709Z,22.04